Chassell, Michigan
Current Conditions -  °F | °C
As of 1:53 PM on Monday 22 Dec 2014 (Local Time) from KCMX Reporting Station
Haze Haze  
Wind Chill: -2°   Ceiling: 1200
Heat Index:   Visibility: 4mi
Dew Point:   Wind: 9mph
Humidity: 89%   Direction: 120°ESE
Pressure: 29.78"   Gusts: NA
Location:  47.03°N, 88.53°W
Report Text: KCMX 221853Z AUTO 12008KT 4SM BR OVC012 02/00 A2978 RMK AO2 SLP097 T00170000
Loading
Personal Weather Stations






























Interactive Weather Map New forecast layout! Learn more

10-Day Weather Forecast

Advertisements
Track Severe Weather on mobile